sensor_id;sensor_type;location;lat;lon;timestamp;pressure;altitude;pressure_sealevel;temperature;humidity
58775;BME280;44545;47.480;19.024;2023-03-23T04:10:31;100036.69;;;4.59;100.00
58775;BME280;44545;47.480;19.024;2023-03-23T04:13:33;100033.22;;;4.46;100.00
58775;BME280;44545;47.480;19.024;2023-03-23T04:16:35;100041.75;;;4.45;100.00
58775;BME280;44545;47.480;19.024;2023-03-23T04:19:37;100043.31;;;4.55;100.00
58775;BME280;44545;47.480;19.024;2023-03-23T04:22:39;100043.53;;;4.70;100.00
58775;BME280;44545;47.480;19.024;2023-03-23T04:25:40;100043.72;;;4.73;100.00
58775;BME280;44545;47.480;19.024;2023-03-23T04:28:43;100041.94;;;4.72;100.00
58775;BME280;44545;47.480;19.024;2023-03-23T04:31:45;100044.41;;;4.82;100.00
58775;BME280;44545;47.480;19.024;2023-03-23T04:34:47;100036.09;;;4.74;100.00
58775;BME280;44545;47.480;19.024;2023-03-23T04:37:50;100041.59;;;4.79;100.00
58775;BME280;44545;47.480;19.024;2023-03-23T04:40:53;100045.97;;;4.80;100.00
58775;BME280;44545;47.480;19.024;2023-03-23T04:43:55;100043.94;;;4.88;100.00
58775;BME280;44545;47.480;19.024;2023-03-23T04:46:57;100040.78;;;4.92;100.00
58775;BME280;44545;47.480;19.024;2023-03-23T04:49:59;100050.78;;;4.99;100.00
58775;BME280;44545;47.480;19.024;2023-03-23T04:53:04;100039.63;;;5.12;100.00
58775;BME280;44545;47.480;19.024;2023-03-23T04:56:06;100042.34;;;5.02;100.00
58775;BME280;44545;47.480;19.024;2023-03-23T04:59:08;100046.34;;;5.10;100.00
58775;BME280;44545;47.480;19.024;2023-03-23T05:02:10;100050.91;;;5.26;100.00
58775;BME280;44545;47.480;19.024;2023-03-23T05:05:13;100053.47;;;5.37;100.00
58775;BME280;44545;47.480;19.024;2023-03-23T05:08:15;100048.22;;;5.49;100.00
58775;BME280;44545;47.480;19.024;2023-03-23T05:11:19;100047.59;;;5.65;100.00
58775;BME280;44545;47.480;19.024;2023-03-23T05:14:20;100040.81;;;5.67;100.00
58775;BME280;44545;47.480;19.024;2023-03-23T05:17:23;100043.66;;;5.83;100.00
58775;BME280;44545;47.480;19.024;2023-03-23T05:20:25;100046.31;;;6.10;100.00
58775;BME280;44545;47.480;19.024;2023-03-23T05:23:27;100058.28;;;6.35;99.69
58775;BME280;44545;47.480;19.024;2023-03-23T05:26:29;100045.56;;;6.51;98.42
58775;BME280;44545;47.480;19.024;2023-03-23T05:29:31;100056.69;;;6.90;97.07
58775;BME280;44545;47.480;19.024;2023-03-23T05:32:33;100054.72;;;7.14;95.57
58775;BME280;44545;47.480;19.024;2023-03-23T05:35:34;100047.34;;;7.20;95.56
58775;BME280;44545;47.480;19.024;2023-03-23T05:38:36;100042.97;;;7.62;91.53
58775;BME280;44545;47.480;19.024;2023-03-23T05:41:40;100036.31;;;7.95;88.68
58775;BME280;44545;47.480;19.024;2023-03-23T05:44:41;100038.72;;;8.22;86.76
58775;BME280;44545;47.480;19.024;2023-03-23T05:47:44;100030.94;;;8.52;84.57
58775;BME280;44545;47.480;19.024;2023-03-23T05:50:47;100029.94;;;8.81;82.91
58775;BME280;44545;47.480;19.024;2023-03-23T05:53:48;100027.81;;;9.21;79.90
58775;BME280;44545;47.480;19.024;2023-03-23T05:56:50;100029.94;;;9.61;77.58
58775;BME280;44545;47.480;19.024;2023-03-23T05:59:51;100026.91;;;10.20;74.71
58775;BME280;44545;47.480;19.024;2023-03-23T06:02:55;100017.41;;;11.51;66.67
58775;BME280;44545;47.480;19.024;2023-03-23T06:06:01;100017.22;;;12.48;60.02
58775;BME280;44545;47.480;19.024;2023-03-23T06:09:04;100006.94;;;13.43;57.30
58775;BME280;44545;47.480;19.024;2023-03-23T06:12:08;100007.00;;;14.72;52.17
58775;BME280;44545;47.480;19.024;2023-03-23T06:15:11;100011.78;;;14.86;50.91
58775;BME280;44545;47.480;19.024;2023-03-23T06:18:15;100016.00;;;15.70;48.90
58775;BME280;44545;47.480;19.024;2023-03-23T06:21:16;100007.06;;;18.37;43.75
58775;BME280;44545;47.480;19.024;2023-03-23T06:24:20;100001.19;;;19.13;39.22
58775;BME280;44545;47.480;19.024;2023-03-23T06:27:23;99999.63;;;19.29;38.93
58775;BME280;44545;47.480;19.024;2023-03-23T06:30:24;99994.91;;;19.74;37.25
58775;BME280;44545;47.480;19.024;2023-03-23T06:33:28;99998.53;;;20.80;35.09
58775;BME280;44545;47.480;19.024;2023-03-23T06:36:32;99989.19;;;21.51;32.86
58775;BME280;44545;47.480;19.024;2023-03-23T06:39:34;99989.94;;;21.31;33.16
58775;BME280;44545;47.480;19.024;2023-03-23T06:42:36;99992.47;;;21.04;34.35
58775;BME280;44545;47.480;19.024;2023-03-23T06:45:40;100003.34;;;21.53;32.40
58775;BME280;44545;47.480;19.024;2023-03-23T06:48:42;99998.16;;;21.96;32.11
58775;BME280;44545;47.480;19.024;2023-03-23T06:51:44;99999.88;;;21.74;32.23
58775;BME280;44545;47.480;19.024;2023-03-23T06:54:46;100000.88;;;22.22;30.77
58775;BME280;44545;47.480;19.024;2023-03-23T06:57:47;100004.25;;;21.55;31.68
58775;BME280;44545;47.480;19.024;2023-03-23T07:00:54;100003.13;;;21.10;32.63
58775;BME280;44545;47.480;19.024;2023-03-23T07:03:58;100005.97;;;21.48;32.04
58775;BME280;44545;47.480;19.024;2023-03-23T07:07:01;100007.09;;;22.28;31.38
58775;BME280;44545;47.480;19.024;2023-03-23T07:10:05;99999.13;;;22.44;30.72
58775;BME280;44545;47.480;19.024;2023-03-23T07:13:07;100008.75;;;23.23;28.96
58775;BME280;44545;47.480;19.024;2023-03-23T07:16:12;100009.69;;;22.91;29.95
58775;BME280;44545;47.480;19.024;2023-03-23T07:19:14;100015.84;;;23.27;29.24
58775;BME280;44545;47.480;19.024;2023-03-23T07:22:16;100015.91;;;23.07;29.62
58775;BME280;44545;47.480;19.024;2023-03-23T07:25:18;100021.13;;;23.33;29.31
58775;BME280;44545;47.480;19.024;2023-03-23T07:28:20;100020.09;;;23.62;28.40
58775;BME280;44545;47.480;19.024;2023-03-23T07:31:23;100028.19;;;23.41;28.87
58775;BME280;44545;47.480;19.024;2023-03-23T07:34:24;100028.25;;;21.98;30.90
58775;BME280;44545;47.480;19.024;2023-03-23T07:37:26;100029.91;;;21.62;31.21
58775;BME280;44545;47.480;19.024;2023-03-23T07:40:29;100038.06;;;20.55;32.93
58775;BME280;44545;47.480;19.024;2023-03-23T07:43:35;100042.38;;;20.45;33.30
58775;BME280;44545;47.480;19.024;2023-03-23T07:46:38;100034.31;;;21.57;32.17
58775;BME280;44545;47.480;19.024;2023-03-23T07:49:41;100042.31;;;21.68;31.47
58775;BME280;44545;47.480;19.024;2023-03-23T07:52:45;100049.38;;;20.40;33.51
58775;BME280;44545;47.480;19.024;2023-03-23T07:55:46;100043.22;;;19.57;35.57
58775;BME280;44545;47.480;19.024;2023-03-23T07:58:49;100044.34;;;19.76;35.00
58775;BME280;44545;47.480;19.024;2023-03-23T08:01:53;100045.47;;;21.00;33.58
58775;BME280;44545;47.480;19.024;2023-03-23T08:04:56;100040.41;;;21.37;32.41
58775;BME280;44545;47.480;19.024;2023-03-23T08:07:57;100045.00;;;21.87;31.97
58775;BME280;44545;47.480;19.024;2023-03-23T08:11:00;100042.38;;;21.92;31.38
58775;BME280;44545;47.480;19.024;2023-03-23T08:14:05;100039.84;;;22.70;30.57
58775;BME280;44545;47.480;19.024;2023-03-23T08:17:07;100039.84;;;22.89;30.18
58775;BME280;44545;47.480;19.024;2023-03-23T08:20:11;100030.72;;;23.79;28.87
58775;BME280;44545;47.480;19.024;2023-03-23T08:23:14;100046.06;;;22.39;30.19
58775;BME280;44545;47.480;19.024;2023-03-23T08:26:18;100049.12;;;21.15;32.57
58775;BME280;44545;47.480;19.024;2023-03-23T08:29:20;100056.84;;;19.92;35.04
58775;BME280;44545;47.480;19.024;2023-03-23T08:32:22;100057.81;;;20.98;33.34
58775;BME280;44545;47.480;19.024;2023-03-23T08:35:26;100058.84;;;21.20;32.64
58775;BME280;44545;47.480;19.024;2023-03-23T08:38:27;100059.72;;;21.16;32.81
58775;BME280;44545;47.480;19.024;2023-03-23T08:41:30;100057.72;;;20.83;32.91
58775;BME280;44545;47.480;19.024;2023-03-23T08:44:32;100059.09;;;20.37;34.02
58775;BME280;44545;47.480;19.024;2023-03-23T08:47:34;100054.59;;;21.46;32.57
58775;BME280;44545;47.480;19.024;2023-03-23T08:50:36;100049.59;;;22.65;30.12
58775;BME280;44545;47.480;19.024;2023-03-23T08:53:38;100048.69;;;22.72;30.19
58775;BME280;44545;47.480;19.024;2023-03-23T08:56:40;100047.81;;;23.07;29.57
58775;BME280;44545;47.480;19.024;2023-03-23T08:59:42;100046.25;;;24.48;27.73
58775;BME280;44545;47.480;19.024;2023-03-23T09:02:47;100038.09;;;25.56;26.37
58775;BME280;44545;47.480;19.024;2023-03-23T09:05:49;100042.62;;;26.75;24.60
58775;BME280;44545;47.480;19.024;2023-03-23T09:08:51;100034.38;;;28.19;23.03
58775;BME280;44545;47.480;19.024;2023-03-23T09:11:53;100036.78;;;27.02;23.34
58775;BME280;44545;47.480;19.024;2023-03-23T09:14:55;100034.53;;;26.24;25.35
58775;BME280;44545;47.480;19.024;2023-03-23T09:17:57;100029.25;;;28.08;22.83
58775;BME280;44545;47.480;19.024;2023-03-23T09:20:59;100019.56;;;29.10;21.16
58775;BME280;44545;47.480;19.024;2023-03-23T09:24:00;100030.03;;;27.73;22.55
58775;BME280;44545;47.480;19.024;2023-03-23T09:27:02;100024.13;;;27.09;23.46
58775;BME280;44545;47.480;19.024;2023-03-23T09:30:09;100023.47;;;25.09;26.01
58775;BME280;44545;47.480;19.024;2023-03-23T09:33:14;100028.31;;;22.65;29.02
58775;BME280;44545;47.480;19.024;2023-03-23T09:36:16;100029.97;;;23.40;28.72
58775;BME280;44545;47.480;19.024;2023-03-23T09:39:18;100022.75;;;24.93;26.77
58775;BME280;44545;47.480;19.024;2023-03-23T09:42:57;100010.13;;;25.85;25.75
58775;BME280;44545;47.480;19.024;2023-03-23T09:49:28;100005.84;;;29.82;20.68
58775;BME280;44545;47.480;19.024;2023-03-23T09:53:22;99998.00;;;30.85;19.75
58775;BME280;44545;47.480;19.024;2023-03-23T09:56:29;100006.16;;;27.16;23.31
58775;BME280;44545;47.480;19.024;2023-03-23T09:59:36;100005.22;;;26.72;24.26
58775;BME280;44545;47.480;19.024;2023-03-23T10:05:49;99995.59;;;27.10;23.70
58775;BME280;44545;47.480;19.024;2023-03-23T10:08:54;99996.84;;;26.39;24.43
58775;BME280;44545;47.480;19.024;2023-03-23T10:12:27;100005.03;;;24.87;26.37
58775;BME280;44545;47.480;19.024;2023-03-23T10:15:35;99985.97;;;25.27;26.12
58775;BME280;44545;47.480;19.024;2023-03-23T10:19:07;99993.84;;;24.52;27.99
58775;BME280;44545;47.480;19.024;2023-03-23T10:22:12;99989.84;;;23.86;28.18
58775;BME280;44545;47.480;19.024;2023-03-23T10:25:19;99983.84;;;23.38;29.25
58775;BME280;44545;47.480;19.024;2023-03-23T10:28:57;99977.97;;;24.30;27.89
58775;BME280;44545;47.480;19.024;2023-03-23T10:32:11;99967.03;;;25.47;26.43
58775;BME280;44545;47.480;19.024;2023-03-23T10:35:18;99955.19;;;24.91;26.99
58775;BME280;44545;47.480;19.024;2023-03-23T10:38:42;99962.31;;;23.87;28.63
58775;BME280;44545;47.480;19.024;2023-03-23T10:41:44;99957.91;;;23.88;29.60
58775;BME280;44545;47.480;19.024;2023-03-23T10:44:46;99958.94;;;23.51;29.93
58775;BME280;44545;47.480;19.024;2023-03-23T10:48:03;99951.91;;;23.47;29.47
58775;BME280;44545;47.480;19.024;2023-03-23T10:51:11;99955.63;;;23.05;30.18
58775;BME280;44545;47.480;19.024;2023-03-23T10:54:25;99952.12;;;22.12;31.80
58775;BME280;44545;47.480;19.024;2023-03-23T10:57:29;99952.78;;;21.14;33.29
58775;BME280;44545;47.480;19.024;2023-03-23T11:00:32;99948.34;;;21.18;33.11
58775;BME280;44545;47.480;19.024;2023-03-23T11:03:46;99951.19;;;21.55;32.34
58775;BME280;44545;47.480;19.024;2023-03-23T11:06:52;99958.34;;;22.00;31.44
58775;BME280;44545;47.480;19.024;2023-03-23T11:09:56;99960.97;;;22.05;31.70
58775;BME280;44545;47.480;19.024;2023-03-23T11:12:59;99952.12;;;21.94;30.71
58775;BME280;44545;47.480;19.024;2023-03-23T11:16:01;99940.63;;;22.18;30.27
58775;BME280;44545;47.480;19.024;2023-03-23T11:19:14;99933.53;;;22.67;29.92
58775;BME280;44545;47.480;19.024;2023-03-23T11:22:35;99927.13;;;23.31;28.84
58775;BME280;44545;47.480;19.024;2023-03-23T11:26:20;99920.62;;;23.86;27.86
58775;BME280;44545;47.480;19.024;2023-03-23T11:29:24;99907.88;;;24.22;27.31
58775;BME280;44545;47.480;19.024;2023-03-23T11:32:28;99910.06;;;24.71;26.55
58775;BME280;44545;47.480;19.024;2023-03-23T11:35:30;99917.44;;;24.43;26.67
58775;BME280;44545;47.480;19.024;2023-03-23T11:38:32;99923.59;;;23.28;27.98
58775;BME280;44545;47.480;19.024;2023-03-23T11:41:37;99924.72;;;22.47;29.44
58775;BME280;44545;47.480;19.024;2023-03-23T11:44:43;99926.44;;;21.65;30.71
58775;BME280;44545;47.480;19.024;2023-03-23T11:51:19;99920.97;;;21.27;31.31
58775;BME280;44545;47.480;19.024;2023-03-23T11:54:29;99910.28;;;20.99;31.85
58775;BME280;44545;47.480;19.024;2023-03-23T11:57:31;99911.13;;;20.92;31.97
58775;BME280;44545;47.480;19.024;2023-03-23T12:00:33;99912.16;;;21.37;31.69
58775;BME280;44545;47.480;19.024;2023-03-23T12:07:02;99906.09;;;22.50;29.66
58775;BME280;44545;47.480;19.024;2023-03-23T12:26:45;99869.81;;;21.87;30.71
58775;BME280;44545;47.480;19.024;2023-03-23T12:49:29;99848.50;;;21.37;31.64
58775;BME280;44545;47.480;19.024;2023-03-23T12:52:37;99850.34;;;21.42;32.18
58775;BME280;44545;47.480;19.024;2023-03-23T12:55:46;99840.63;;;21.40;31.88
58775;BME280;44545;47.480;19.024;2023-03-23T12:58:58;99849.47;;;21.50;31.72
58775;BME280;44545;47.480;19.024;2023-03-23T13:02:25;99843.28;;;21.71;31.79
58775;BME280;44545;47.480;19.024;2023-03-23T13:08:40;99830.00;;;21.87;31.04
58775;BME280;44545;47.480;19.024;2023-03-23T13:11:42;99824.69;;;21.89;31.40
58775;BME280;44545;47.480;19.024;2023-03-23T13:15:07;99829.12;;;22.08;30.72
58775;BME280;44545;47.480;19.024;2023-03-23T13:21:35;99833.53;;;21.59;30.87
58775;BME280;44545;47.480;19.024;2023-03-23T13:24:48;99831.69;;;21.24;31.89
58775;BME280;44545;47.480;19.024;2023-03-23T13:27:59;99823.84;;;21.62;31.22
58775;BME280;44545;47.480;19.024;2023-03-23T13:31:10;99825.59;;;21.82;31.48
58775;BME280;44545;47.480;19.024;2023-03-23T13:34:18;99824.72;;;21.74;31.33
58775;BME280;44545;47.480;19.024;2023-03-23T13:37:25;99819.38;;;21.64;31.43
58775;BME280;44545;47.480;19.024;2023-03-23T13:40:31;99826.50;;;21.55;32.10
58775;BME280;44545;47.480;19.024;2023-03-23T13:43:35;99820.28;;;21.62;31.50
58775;BME280;44545;47.480;19.024;2023-03-23T13:46:37;99815.88;;;21.61;31.79
58775;BME280;44545;47.480;19.024;2023-03-23T13:50:00;99815.81;;;21.33;31.73
58775;BME280;44545;47.480;19.024;2023-03-23T13:53:13;99808.66;;;20.98;32.31
58775;BME280;44545;47.480;19.024;2023-03-23T13:56:21;99804.25;;;21.08;32.47
58775;BME280;44545;47.480;19.024;2023-03-23T13:59:35;99802.47;;;21.01;32.53
58775;BME280;44545;47.480;19.024;2023-03-23T14:02:39;99802.44;;;20.84;33.01
58775;BME280;44545;47.480;19.024;2023-03-23T14:05:50;99800.69;;;20.88;33.27
58775;BME280;44545;47.480;19.024;2023-03-23T14:08:54;99798.94;;;20.97;33.92
58775;BME280;44545;47.480;19.024;2023-03-23T14:11:57;99800.72;;;21.08;32.86
58775;BME280;44545;47.480;19.024;2023-03-23T14:15:02;99796.28;;;20.97;32.88
58775;BME280;44545;47.480;19.024;2023-03-23T14:18:05;99790.97;;;20.91;33.53
58775;BME280;44545;47.480;19.024;2023-03-23T14:21:14;99794.50;;;20.84;33.91
58775;BME280;44545;47.480;19.024;2023-03-23T14:24:26;99789.09;;;20.63;34.70
58775;BME280;44545;47.480;19.024;2023-03-23T14:27:27;99783.81;;;20.63;34.04
58775;BME280;44545;47.480;19.024;2023-03-23T14:30:35;99780.16;;;20.48;34.07
58775;BME280;44545;47.480;19.024;2023-03-23T14:33:38;99777.53;;;20.53;33.99
58775;BME280;44545;47.480;19.024;2023-03-23T14:36:42;99779.28;;;20.45;33.84
58775;BME280;44545;47.480;19.024;2023-03-23T14:39:46;99781.91;;;20.40;35.02
58775;BME280;44545;47.480;19.024;2023-03-23T14:42:50;99786.31;;;20.37;34.92
58775;BME280;44545;47.480;19.024;2023-03-23T14:45:54;99787.13;;;20.25;34.27
58775;BME280;44545;47.480;19.024;2023-03-23T14:49:00;99786.31;;;20.33;34.67
58775;BME280;44545;47.480;19.024;2023-03-23T14:52:13;99783.62;;;20.29;34.69
58775;BME280;44545;47.480;19.024;2023-03-23T14:55:20;99782.72;;;20.27;34.63
58775;BME280;44545;47.480;19.024;2023-03-23T14:58:23;99787.22;;;20.42;34.74
58775;BME280;44545;47.480;19.024;2023-03-23T15:01:27;99773.19;;;20.56;34.43
58775;BME280;44545;47.480;19.024;2023-03-23T15:04:29;99776.62;;;20.45;34.48
58775;BME280;44545;47.480;19.024;2023-03-23T15:07:34;99780.19;;;20.50;34.58
58775;BME280;44545;47.480;19.024;2023-03-23T15:10:36;99776.75;;;20.62;34.08
58775;BME280;44545;47.480;19.024;2023-03-23T15:13:49;99775.06;;;20.82;34.02
58775;BME280;44545;47.480;19.024;2023-03-23T15:16:53;99775.00;;;20.76;33.79
58775;BME280;44545;47.480;19.024;2023-03-23T15:19:56;99773.28;;;20.76;33.72
58775;BME280;44545;47.480;19.024;2023-03-23T15:23:06;99773.22;;;20.64;34.16
58775;BME280;44545;47.480;19.024;2023-03-23T15:26:24;99780.16;;;20.48;34.39
58775;BME280;44545;47.480;19.024;2023-03-23T15:29:25;99788.91;;;20.27;34.61
58775;BME280;44545;47.480;19.024;2023-03-23T15:32:29;99786.13;;;20.07;34.87
58775;BME280;44545;47.480;19.024;2023-03-23T15:35:34;99779.91;;;19.99;35.10
58775;BME280;44545;47.480;19.024;2023-03-23T15:38:36;99771.91;;;19.88;35.81
58775;BME280;44545;47.480;19.024;2023-03-23T15:41:46;99774.59;;;19.98;35.46
58775;BME280;44545;47.480;19.024;2023-03-23T15:48:11;99780.75;;;19.90;36.29
58775;BME280;44545;47.480;19.024;2023-03-23T15:51:14;99777.16;;;19.82;35.94
58775;BME280;44545;47.480;19.024;2023-03-23T15:54:16;99794.72;;;19.71;35.77
58775;BME280;44545;47.480;19.024;2023-03-23T15:57:17;99786.69;;;19.63;36.09
58775;BME280;44545;47.480;19.024;2023-03-23T16:00:20;99781.38;;;19.60;36.23
58775;BME280;44545;47.480;19.024;2023-03-23T16:03:26;99786.41;;;19.31;36.78
58775;BME280;44545;47.480;19.024;2023-03-23T16:06:30;99788.03;;;19.18;37.31
58775;BME280;44545;47.480;19.024;2023-03-23T16:09:33;99782.56;;;18.98;37.54
58775;BME280;44545;47.480;19.024;2023-03-23T16:12:36;99784.22;;;18.89;37.40
58775;BME280;44545;47.480;19.024;2023-03-23T16:15:38;99786.66;;;18.72;37.88
